createdAt,value
2023-04-23T00:02:26.955Z,20.96
2023-04-23T00:04:58.420Z,20.98
2023-04-23T00:07:27.047Z,20.96
2023-04-23T00:09:59.061Z,20.94
2023-04-23T00:12:27.907Z,20.93
2023-04-23T00:14:57.242Z,20.92
2023-04-23T00:17:25.260Z,20.95
2023-04-23T00:19:53.342Z,21.00
2023-04-23T00:22:22.133Z,20.98
2023-04-23T00:24:50.125Z,21.01
2023-04-23T00:27:21.137Z,21.01
2023-04-23T00:29:51.430Z,21.03
2023-04-23T00:32:19.845Z,21.06
2023-04-23T00:34:48.868Z,21.09
2023-04-23T00:37:17.161Z,21.09
2023-04-23T00:39:45.639Z,21.09
2023-04-23T00:42:14.219Z,21.10
2023-04-23T00:44:44.979Z,21.11
2023-04-23T00:47:13.196Z,21.13
2023-04-23T00:49:43.544Z,21.11
2023-04-23T00:52:11.903Z,21.09
2023-04-23T00:54:40.140Z,21.08
2023-04-23T00:57:09.013Z,21.08
2023-04-23T00:59:37.615Z,21.06
2023-04-23T01:02:07.495Z,21.05
2023-04-23T01:04:38.066Z,21.04
2023-04-23T01:07:07.590Z,21.02
2023-04-23T01:09:35.780Z,21.00
2023-04-23T01:12:06.508Z,20.97
2023-04-23T01:14:35.433Z,20.95
2023-04-23T01:17:03.489Z,20.93
2023-04-23T01:19:33.276Z,20.91
2023-04-23T01:22:01.773Z,20.89
2023-04-23T01:24:32.506Z,20.86
2023-04-23T01:27:01.729Z,20.86
2023-04-23T01:29:31.212Z,20.83
2023-04-23T01:32:00.312Z,20.79
2023-04-23T01:34:28.449Z,20.78
2023-04-23T01:36:57.915Z,20.78
2023-04-23T01:39:26.362Z,20.79
2023-04-23T01:41:57.030Z,20.78
2023-04-23T01:44:28.185Z,20.76
2023-04-23T01:46:57.495Z,20.78
2023-04-23T01:49:26.194Z,20.77
2023-04-23T01:51:54.321Z,20.76
2023-04-23T01:54:22.459Z,20.74
2023-04-23T01:56:54.671Z,20.74
2023-04-23T01:59:24.290Z,20.74
2023-04-23T02:01:52.731Z,20.75
2023-04-23T02:04:21.355Z,20.75
2023-04-23T02:06:52.030Z,20.75
2023-04-23T02:09:21.230Z,20.73
2023-04-23T02:11:49.500Z,20.74
2023-04-23T02:14:18.010Z,20.73
2023-04-23T02:16:48.000Z,20.73
2023-04-23T02:19:16.999Z,20.72
2023-04-23T02:21:45.345Z,20.72
2023-04-23T02:24:13.563Z,20.71
2023-04-23T02:26:41.848Z,20.70
2023-04-23T02:29:10.194Z,20.71
2023-04-23T02:31:38.415Z,20.71
2023-04-23T02:34:08.216Z,20.70
2023-04-23T02:36:36.731Z,20.68
2023-04-23T02:39:05.030Z,20.64
2023-04-23T02:41:33.082Z,20.61
2023-04-23T02:44:01.472Z,20.54
2023-04-23T02:46:29.677Z,20.45
2023-04-23T02:48:57.753Z,20.44
2023-04-23T02:51:27.613Z,20.44
2023-04-23T02:53:55.748Z,20.45
2023-04-23T02:56:23.897Z,20.44
2023-04-23T02:58:52.301Z,20.45
2023-04-23T03:01:20.345Z,20.43
2023-04-23T03:03:48.678Z,20.40
2023-04-23T03:06:18.095Z,20.36
2023-04-23T03:08:47.405Z,20.34
2023-04-23T03:11:15.750Z,20.29
2023-04-23T03:13:44.078Z,20.26
2023-04-23T03:16:12.109Z,20.26
2023-04-23T03:18:40.374Z,20.20
2023-04-23T03:21:08.759Z,20.19
2023-04-23T03:23:37.346Z,20.20
2023-04-23T03:26:06.864Z,20.17
2023-04-23T03:28:35.246Z,20.15
2023-04-23T03:31:03.360Z,20.15
2023-04-23T03:33:31.479Z,20.14
2023-04-23T03:35:59.862Z,20.13
2023-04-23T03:38:28.377Z,20.10
2023-04-23T03:40:57.837Z,20.12
2023-04-23T03:43:27.787Z,20.13
2023-04-23T03:45:58.459Z,20.08
2023-04-23T03:48:27.111Z,20.08
2023-04-23T03:50:55.313Z,20.06
2023-04-23T03:53:25.025Z,20.02
2023-04-23T03:55:56.169Z,19.99
2023-04-23T03:58:24.592Z,20.00
2023-04-23T04:00:54.688Z,20.01
2023-04-23T04:03:23.281Z,20.02
2023-04-23T04:05:51.605Z,20.03
2023-04-23T04:08:19.640Z,20.01
2023-04-23T04:10:48.081Z,20.01
2023-04-23T04:13:16.146Z,20.00
2023-04-23T04:15:44.249Z,20.02
2023-04-23T04:18:13.854Z,20.01
2023-04-23T04:20:44.285Z,19.99
2023-04-23T04:23:12.706Z,20.01
2023-04-23T04:25:40.912Z,20.02
2023-04-23T04:28:09.408Z,20.05
2023-04-23T04:30:38.189Z,20.05
2023-04-23T04:33:06.369Z,20.04
2023-04-23T04:35:35.986Z,20.05
2023-04-23T04:38:04.233Z,20.05
2023-04-23T04:40:33.805Z,20.05
2023-04-23T04:43:02.131Z,20.05
2023-04-23T04:45:30.418Z,20.10
2023-04-23T04:47:58.529Z,20.09
2023-04-23T04:50:26.981Z,20.09
2023-04-23T04:52:56.660Z,20.13
2023-04-23T04:55:24.699Z,20.15
2023-04-23T04:57:52.741Z,20.16
2023-04-23T05:00:23.647Z,20.17
2023-04-23T05:02:52.417Z,20.18
2023-04-23T05:05:22.690Z,20.17
2023-04-23T05:07:51.468Z,20.20
2023-04-23T05:10:22.104Z,20.17
2023-04-23T05:12:52.044Z,20.18
2023-04-23T05:15:20.244Z,20.16
2023-04-23T05:17:50.276Z,20.16
2023-04-23T05:20:18.624Z,20.22
2023-04-23T05:22:46.661Z,20.24
2023-04-23T05:25:14.990Z,20.26
2023-04-23T05:27:44.743Z,20.24
2023-04-23T05:30:13.398Z,20.23
2023-04-23T05:32:41.645Z,20.23
2023-04-23T05:35:10.429Z,20.27
2023-04-23T05:37:38.534Z,20.28
2023-04-23T05:40:07.893Z,20.31
2023-04-23T05:42:37.456Z,20.32
2023-04-23T05:45:09.065Z,20.34
2023-04-23T05:47:37.986Z,20.34
2023-04-23T05:50:07.313Z,20.36
2023-04-23T05:52:37.402Z,20.35
2023-04-23T05:55:07.840Z,20.33
2023-04-23T05:57:37.845Z,20.40
2023-04-23T06:00:11.268Z,20.42
2023-04-23T06:02:41.194Z,20.48
2023-04-23T06:05:11.108Z,20.57
2023-04-23T06:07:39.462Z,20.57
2023-04-23T06:10:08.793Z,20.63
2023-04-23T06:12:39.261Z,20.71
2023-04-23T06:15:09.970Z,20.69
2023-04-23T06:17:38.745Z,20.77
2023-04-23T06:20:09.003Z,20.86
2023-04-23T06:22:37.080Z,20.84
2023-04-23T06:25:06.576Z,20.87
2023-04-23T06:27:34.754Z,20.96
2023-04-23T06:30:03.411Z,20.90
2023-04-23T06:32:33.083Z,21.03
2023-04-23T06:35:02.321Z,21.10
2023-04-23T06:37:31.897Z,21.17
2023-04-23T06:40:00.604Z,21.37
2023-04-23T06:42:28.682Z,21.36
2023-04-23T06:44:59.481Z,21.39
2023-04-23T06:47:27.722Z,21.41
2023-04-23T06:49:57.363Z,21.72
2023-04-23T06:52:25.344Z,21.84
2023-04-23T06:54:53.694Z,22.05
2023-04-23T06:57:21.922Z,22.12
2023-04-23T06:59:49.988Z,22.04
2023-04-23T07:02:18.808Z,22.20
2023-04-23T07:04:47.709Z,22.27
2023-04-23T07:07:17.300Z,22.27
2023-04-23T07:09:45.661Z,22.24
2023-04-23T07:12:13.743Z,22.35
2023-04-23T07:14:42.027Z,22.30
2023-04-23T07:17:11.204Z,22.43
2023-04-23T07:19:39.222Z,22.32
2023-04-23T07:22:07.479Z,22.34
2023-04-23T07:24:36.990Z,22.28
2023-04-23T07:27:05.785Z,22.21
2023-04-23T07:29:34.167Z,22.06
2023-04-23T07:32:02.472Z,21.89
2023-04-23T07:34:30.671Z,21.88
2023-04-23T07:36:59.035Z,21.99
2023-04-23T07:39:27.414Z,21.84
2023-04-23T07:41:58.341Z,21.90
2023-04-23T07:44:26.443Z,21.94
2023-04-23T07:46:55.541Z,21.93
2023-04-23T07:49:23.566Z,21.94
2023-04-23T07:51:51.517Z,21.96
2023-04-23T07:54:20.124Z,22.05
2023-04-23T07:56:48.119Z,21.79
2023-04-23T07:59:17.511Z,21.94
2023-04-23T08:01:45.832Z,21.74
2023-04-23T08:04:14.686Z,21.93
2023-04-23T08:06:43.124Z,21.93
2023-04-23T08:09:11.182Z,21.79
2023-04-23T08:11:39.500Z,21.82
2023-04-23T08:14:07.630Z,21.51
2023-04-23T08:16:39.100Z,21.50
2023-04-23T08:19:07.768Z,21.53
2023-04-23T08:21:36.024Z,21.13
2023-04-23T08:24:05.260Z,21.05
2023-04-23T08:26:33.554Z,21.06
2023-04-23T08:29:01.718Z,21.23
2023-04-23T08:31:29.830Z,21.19
2023-04-23T08:33:59.709Z,21.26
2023-04-23T08:36:29.454Z,21.31
2023-04-23T08:38:57.750Z,21.52
2023-04-23T08:41:36.123Z,21.63
2023-04-23T08:44:13.129Z,21.64
2023-04-23T08:46:44.554Z,21.77
2023-04-23T08:49:17.168Z,22.18
2023-04-23T08:51:50.489Z,22.20
2023-04-23T08:54:26.365Z,22.14
2023-04-23T08:56:57.576Z,22.33
2023-04-23T08:59:26.991Z,22.42
2023-04-23T09:01:56.160Z,22.55
2023-04-23T09:04:26.447Z,22.80
2023-04-23T09:06:54.531Z,22.60
2023-04-23T09:09:24.610Z,22.74
2023-04-23T09:11:54.632Z,22.81
2023-04-23T09:14:25.871Z,22.96
2023-04-23T09:16:54.835Z,23.05
2023-04-23T09:19:22.944Z,23.10
2023-04-23T09:21:53.836Z,22.97
2023-04-23T09:24:23.824Z,22.89
2023-04-23T09:26:53.390Z,23.12
2023-04-23T09:29:23.599Z,23.21
2023-04-23T09:31:53.835Z,23.09
2023-04-23T09:34:23.704Z,23.44
2023-04-23T09:36:54.118Z,23.46
2023-04-23T09:39:24.452Z,23.20
2023-04-23T09:41:53.863Z,23.33
2023-04-23T09:44:23.559Z,23.44
2023-04-23T09:46:51.836Z,23.70
2023-04-23T09:49:20.128Z,24.14
2023-04-23T09:51:50.257Z,24.00
2023-04-23T09:54:24.985Z,23.94
2023-04-23T09:56:57.132Z,23.84
2023-04-23T10:02:03.016Z,23.80
2023-04-23T10:04:31.583Z,23.76
2023-04-23T10:07:17.434Z,23.86
2023-04-23T10:09:48.869Z,23.82
2023-04-23T10:12:36.669Z,23.67
2023-04-23T10:15:08.270Z,23.75
2023-04-23T10:17:37.159Z,23.87
2023-04-23T10:20:07.063Z,24.14
2023-04-23T10:22:36.748Z,24.75
2023-04-23T10:25:10.558Z,25.25
2023-04-23T10:27:52.055Z,25.72
2023-04-23T10:30:21.884Z,25.79
2023-04-23T10:32:51.454Z,26.18
2023-04-23T10:35:19.688Z,25.90
2023-04-23T10:37:49.078Z,25.98
2023-04-23T10:40:22.966Z,26.09
2023-04-23T10:42:51.694Z,25.82
2023-04-23T10:45:25.254Z,25.68
2023-04-23T10:47:55.968Z,25.54
2023-04-23T10:50:26.877Z,25.16
2023-04-23T10:52:57.281Z,24.99
2023-04-23T10:55:29.046Z,25.27
2023-04-23T10:58:01.271Z,25.37
2023-04-23T11:00:43.097Z,25.47
2023-04-23T11:03:31.599Z,25.89
2023-04-23T11:06:02.841Z,26.21
2023-04-23T11:08:33.043Z,26.21
2023-04-23T11:11:07.416Z,26.50
2023-04-23T11:13:35.761Z,26.66
2023-04-23T11:16:18.639Z,26.40
2023-04-23T11:18:57.685Z,25.87
2023-04-23T11:21:59.982Z,26.09
2023-04-23T11:24:29.516Z,26.00
2023-04-23T11:26:59.635Z,26.18
2023-04-23T11:29:29.352Z,26.29
2023-04-23T11:32:03.172Z,26.55
2023-04-23T11:34:33.200Z,26.58
2023-04-23T11:37:03.335Z,26.52
2023-04-23T11:39:31.501Z,26.51
2023-04-23T11:42:03.231Z,26.80
2023-04-23T11:44:32.015Z,27.02
2023-04-23T11:47:03.330Z,27.14
2023-04-23T11:49:31.692Z,26.96
2023-04-23T11:52:01.594Z,27.17
2023-04-23T11:54:30.548Z,27.17
2023-04-23T11:57:00.297Z,27.10
2023-04-23T11:59:28.989Z,27.20
2023-04-23T12:01:58.680Z,27.37
2023-04-23T12:04:28.793Z,27.56
2023-04-23T12:06:57.896Z,27.57
2023-04-23T12:09:30.198Z,27.49
2023-04-23T12:12:00.326Z,27.52
2023-04-23T12:14:31.219Z,27.25
2023-04-23T12:17:09.965Z,27.31
2023-04-23T12:19:38.352Z,27.31
2023-04-23T12:22:08.551Z,27.62
2023-04-23T12:24:47.629Z,27.79
2023-04-23T12:27:20.142Z,28.06
2023-04-23T12:29:48.519Z,27.93
2023-04-23T12:32:16.781Z,27.88
2023-04-23T12:34:53.963Z,28.09
2023-04-23T12:37:26.239Z,28.18
2023-04-23T12:39:56.440Z,27.89
2023-04-23T12:42:26.703Z,28.37
2023-04-23T12:44:55.699Z,28.49
2023-04-23T12:47:24.278Z,28.19
2023-04-23T12:49:55.325Z,28.14
2023-04-23T12:52:23.548Z,28.34
2023-04-23T12:54:56.301Z,28.35
2023-04-23T12:57:27.035Z,28.06
2023-04-23T12:59:56.338Z,28.19
2023-04-23T13:02:25.981Z,28.23
2023-04-23T13:04:59.576Z,28.40
2023-04-23T13:07:27.927Z,28.09
2023-04-23T13:09:57.318Z,28.15
2023-04-23T13:12:26.928Z,27.95
2023-04-23T13:14:55.352Z,28.40
2023-04-23T13:17:25.273Z,28.10
2023-04-23T13:19:53.384Z,28.35
2023-04-23T13:22:22.521Z,28.11
2023-04-23T13:24:50.585Z,28.04
2023-04-23T13:27:18.467Z,28.23
2023-04-23T13:29:47.996Z,28.28
2023-04-23T13:32:16.811Z,28.47
2023-04-23T13:34:44.781Z,28.69
2023-04-23T13:37:13.127Z,29.03
2023-04-23T13:39:41.932Z,29.24
2023-04-23T13:42:10.429Z,29.39
2023-04-23T13:44:38.762Z,29.62
2023-04-23T13:47:08.392Z,29.76
2023-04-23T13:49:36.395Z,29.57
2023-04-23T13:52:06.987Z,29.47
2023-04-23T13:54:35.727Z,29.71
2023-04-23T13:57:04.414Z,29.83
2023-04-23T13:59:32.564Z,29.38
2023-04-23T14:02:02.893Z,29.19
2023-04-23T14:04:37.538Z,29.34
2023-04-23T14:07:05.721Z,29.70
2023-04-23T14:09:34.149Z,30.08
2023-04-23T14:12:02.315Z,30.36
2023-04-23T14:14:30.459Z,30.44
2023-04-23T14:16:58.751Z,30.43
2023-04-23T14:19:26.943Z,30.56
2023-04-23T14:21:56.275Z,30.48
2023-04-23T14:24:28.687Z,30.20
2023-04-23T14:26:56.952Z,30.06
2023-04-23T14:29:31.937Z,29.48
2023-04-23T14:31:59.888Z,29.62
2023-04-23T14:34:28.583Z,29.66
2023-04-23T14:36:57.997Z,29.27
2023-04-23T14:39:26.897Z,28.74
2023-04-23T14:41:55.358Z,28.68
2023-04-23T14:44:26.340Z,28.61
2023-04-23T14:46:54.385Z,28.64
2023-04-23T14:49:23.390Z,28.33
2023-04-23T14:51:54.506Z,28.34
2023-04-23T14:54:24.371Z,28.56
2023-04-23T14:56:52.858Z,28.85
2023-04-23T14:59:22.002Z,29.01
2023-04-23T15:01:50.491Z,29.08
2023-04-23T15:04:18.790Z,29.02
2023-04-23T15:06:46.842Z,29.00
2023-04-23T15:09:15.754Z,29.16
2023-04-23T15:11:45.308Z,29.23
2023-04-23T15:14:21.361Z,29.40
2023-04-23T15:16:50.412Z,29.57
2023-04-23T15:19:19.738Z,30.16
2023-04-23T15:21:48.359Z,31.30
2023-04-23T15:24:17.400Z,32.31
2023-04-23T15:26:46.795Z,32.76
2023-04-23T15:29:14.812Z,32.62
2023-04-23T15:31:43.277Z,31.97
2023-04-23T15:34:12.416Z,31.23
2023-04-23T15:36:40.518Z,30.52
2023-04-23T15:39:09.689Z,30.11
2023-04-23T15:41:40.795Z,29.92
2023-04-23T15:44:15.453Z,29.67
2023-04-23T15:46:43.442Z,30.00
2023-04-23T15:49:11.760Z,30.60
2023-04-23T15:51:40.095Z,31.30
2023-04-23T15:54:09.070Z,32.10
2023-04-23T15:56:37.936Z,32.83
2023-04-23T15:59:06.290Z,33.48
2023-04-23T16:01:36.404Z,34.00
2023-04-23T16:06:35.785Z,34.62
2023-04-23T16:09:06.716Z,34.92
2023-04-23T16:11:35.545Z,35.45
2023-04-23T16:14:03.751Z,35.12
2023-04-23T16:16:31.975Z,34.91
2023-04-23T16:19:01.992Z,35.25
2023-04-23T16:21:29.987Z,35.60
2023-04-23T16:23:57.890Z,35.89
2023-04-23T16:26:26.188Z,36.01
2023-04-23T16:29:05.822Z,35.95
2023-04-23T16:31:40.237Z,35.29
2023-04-23T16:34:09.860Z,34.47
2023-04-23T16:36:38.131Z,34.09
2023-04-23T16:39:06.364Z,33.73
2023-04-23T16:41:36.232Z,33.11
2023-04-23T16:44:04.218Z,32.39
2023-04-23T16:46:32.776Z,31.53
2023-04-23T16:49:00.826Z,30.98
2023-04-23T16:51:30.466Z,30.52
2023-04-23T16:53:59.209Z,30.17
2023-04-23T16:56:27.350Z,29.93
2023-04-23T16:58:55.522Z,29.85
2023-04-23T17:01:23.847Z,29.80
2023-04-23T17:03:52.112Z,29.72
2023-04-23T17:06:26.926Z,29.70
2023-04-23T17:08:58.272Z,29.67
2023-04-23T17:11:26.866Z,29.66
2023-04-23T17:13:56.489Z,29.71
2023-04-23T17:16:26.723Z,29.65
2023-04-23T17:18:55.089Z,29.75
2023-04-23T17:21:23.512Z,29.78
2023-04-23T17:23:51.916Z,29.81
2023-04-23T17:26:21.245Z,29.81
2023-04-23T17:28:49.203Z,29.57
2023-04-23T17:31:18.411Z,29.18
2023-04-23T17:33:49.186Z,28.70
2023-04-23T17:36:18.082Z,28.18
2023-04-23T17:38:46.390Z,27.66
2023-04-23T17:41:19.230Z,27.20
2023-04-23T17:43:49.378Z,26.79
2023-04-23T17:46:18.398Z,26.36
2023-04-23T17:48:46.764Z,26.05
2023-04-23T17:51:16.080Z,25.72
2023-04-23T17:53:48.181Z,25.44
2023-04-23T17:56:16.501Z,25.16
2023-04-23T17:58:45.173Z,24.94
2023-04-23T18:01:15.495Z,24.76
2023-04-23T18:03:44.132Z,24.51
2023-04-23T18:06:12.724Z,24.26
2023-04-23T18:08:42.608Z,24.06
2023-04-23T18:11:11.273Z,23.90
2023-04-23T18:13:39.542Z,23.69
2023-04-23T18:16:07.611Z,23.50
2023-04-23T18:18:37.218Z,23.34
2023-04-23T18:21:05.903Z,23.20
2023-04-23T18:23:35.802Z,23.02
2023-04-23T18:26:04.338Z,22.86
2023-04-23T18:28:32.893Z,22.71
2023-04-23T18:31:02.581Z,22.61
2023-04-23T18:33:33.621Z,22.49
2023-04-23T18:36:09.175Z,22.35
2023-04-23T18:38:40.656Z,22.24
2023-04-23T18:41:08.683Z,22.07
2023-04-23T18:43:36.879Z,21.95
2023-04-23T18:46:05.115Z,21.83
2023-04-23T18:48:46.033Z,21.73
2023-04-23T18:51:21.686Z,21.65
2023-04-23T18:53:49.849Z,21.54
2023-04-23T18:56:18.068Z,21.41
2023-04-23T18:58:46.146Z,21.32
2023-04-23T19:01:14.766Z,21.21
2023-04-23T19:03:43.492Z,21.09
2023-04-23T19:06:11.635Z,21.02
2023-04-23T19:08:42.329Z,20.98
2023-04-23T19:11:10.887Z,20.92
2023-04-23T19:13:38.854Z,20.87
2023-04-23T19:16:07.008Z,20.77
2023-04-23T19:18:35.425Z,20.72
2023-04-23T19:21:04.475Z,20.62
2023-04-23T19:23:32.611Z,20.52
2023-04-23T19:26:03.255Z,20.43
2023-04-23T19:28:31.954Z,20.36
2023-04-23T19:31:00.379Z,20.28
2023-04-23T19:33:28.314Z,20.20
2023-04-23T19:35:56.388Z,20.12
2023-04-23T19:38:25.083Z,20.05
2023-04-23T19:40:53.072Z,20.00
2023-04-23T19:43:22.502Z,19.97
2023-04-23T19:45:50.726Z,19.81
2023-04-23T19:48:18.770Z,19.80
2023-04-23T19:50:47.822Z,19.80
2023-04-23T19:53:16.153Z,19.75
2023-04-23T19:55:44.152Z,19.73
2023-04-23T19:58:12.862Z,19.71
2023-04-23T20:00:43.885Z,19.66
2023-04-23T20:03:12.734Z,19.64
2023-04-23T20:05:42.300Z,19.59
2023-04-23T20:08:15.570Z,19.55
2023-04-23T20:10:44.311Z,19.50
2023-04-23T20:13:12.781Z,19.47
2023-04-23T20:15:43.212Z,19.40
2023-04-23T20:18:11.710Z,19.34
2023-04-23T20:20:40.018Z,19.29
2023-04-23T20:23:08.063Z,19.24
2023-04-23T20:25:37.699Z,19.21
2023-04-23T20:28:06.502Z,19.17
2023-04-23T20:30:34.801Z,19.14
2023-04-23T20:33:04.617Z,19.09
2023-04-23T20:35:33.641Z,19.07
2023-04-23T20:38:02.070Z,19.05
2023-04-23T20:40:34.345Z,19.06
2023-04-23T20:43:04.560Z,18.98
2023-04-23T20:45:34.499Z,18.94
2023-04-23T20:48:04.040Z,18.89
2023-04-23T20:50:32.468Z,18.86
2023-04-23T20:53:01.039Z,18.83
2023-04-23T20:55:29.160Z,18.81
2023-04-23T20:57:57.460Z,18.79
2023-04-23T21:00:25.566Z,18.80
2023-04-23T21:02:53.739Z,18.80
2023-04-23T21:05:23.829Z,18.79
2023-04-23T21:07:51.834Z,18.75
2023-04-23T21:10:20.031Z,18.72
2023-04-23T21:12:48.633Z,18.70
2023-04-23T21:15:17.530Z,18.66
2023-04-23T21:17:45.593Z,18.59
2023-04-23T21:20:13.912Z,18.53
2023-04-23T21:22:43.412Z,18.43
2023-04-23T21:25:11.781Z,18.43
2023-04-23T21:27:42.020Z,18.37
2023-04-23T21:30:16.547Z,18.31
2023-04-23T21:32:44.983Z,18.24
2023-04-23T21:35:13.024Z,18.18
2023-04-23T21:37:41.058Z,18.12
2023-04-23T21:40:11.350Z,18.09
2023-04-23T21:42:40.045Z,18.05
2023-04-23T21:45:09.046Z,18.05
2023-04-23T21:47:37.303Z,18.05
2023-04-23T21:50:06.143Z,18.07
2023-04-23T21:52:34.211Z,18.10
2023-04-23T21:55:02.420Z,18.12
2023-04-23T21:57:31.934Z,18.16
2023-04-23T22:00:00.124Z,18.17
2023-04-23T22:02:28.705Z,18.19
2023-04-23T22:04:57.604Z,18.21
2023-04-23T22:07:26.885Z,18.24
2023-04-23T22:09:57.124Z,18.24
2023-04-23T22:12:25.789Z,18.26
2023-04-23T22:14:55.121Z,18.29
2023-04-23T22:17:26.225Z,18.30
2023-04-23T22:19:54.569Z,18.31
2023-04-23T22:22:22.578Z,18.33
2023-04-23T22:24:50.711Z,18.35
2023-04-23T22:27:19.182Z,18.41
2023-04-23T22:29:47.259Z,18.46
2023-04-23T22:32:16.599Z,18.48
2023-04-23T22:34:45.125Z,18.50
2023-04-23T22:37:13.348Z,18.53
2023-04-23T22:39:41.723Z,18.52
2023-04-23T22:42:10.301Z,18.57
2023-04-23T22:44:38.768Z,18.61
2023-04-23T22:47:06.715Z,18.60
2023-04-23T22:49:36.513Z,18.65
2023-04-23T22:52:04.989Z,18.63
2023-04-23T22:54:32.950Z,18.71
2023-04-23T22:57:02.088Z,18.73
2023-04-23T22:59:31.086Z,18.67
2023-04-23T23:01:59.095Z,18.67
2023-04-23T23:04:27.535Z,18.66
2023-04-23T23:06:56.924Z,18.75
2023-04-23T23:09:24.900Z,18.75
2023-04-23T23:11:53.270Z,18.81
2023-04-23T23:14:21.448Z,18.90
2023-04-23T23:16:49.466Z,19.03
2023-04-23T23:19:17.730Z,19.08
2023-04-23T23:21:45.731Z,19.18
2023-04-23T23:24:15.366Z,19.26
2023-04-23T23:26:43.614Z,19.25
2023-04-23T23:29:11.637Z,19.33
2023-04-23T23:31:39.778Z,19.31
2023-04-23T23:34:08.753Z,19.29
2023-04-23T23:36:36.778Z,19.18
2023-04-23T23:39:05.467Z,19.30
2023-04-23T23:41:35.100Z,19.30
2023-04-23T23:44:03.077Z,19.34
2023-04-23T23:46:31.288Z,19.36
2023-04-23T23:48:59.738Z,19.37
2023-04-23T23:51:28.234Z,19.37
2023-04-23T23:53:56.291Z,19.39
2023-04-23T23:56:24.565Z,19.41
2023-04-23T23:58:53.924Z,19.44
